sensor_id;sensor_type;location;lat;lon;timestamp;P1;durP1;ratioP1;P2;durP2;ratioP2
31336;SDS011;22846;42.654;23.314;2023-04-24T00:02:22;9.60;;;7.63;;
31336;SDS011;22846;42.654;23.314;2023-04-24T00:04:47;9.95;;;8.13;;
31336;SDS011;22846;42.654;23.314;2023-04-24T00:07:14;10.05;;;7.80;;
31336;SDS011;22846;42.654;23.314;2023-04-24T00:09:41;8.52;;;7.53;;
31336;SDS011;22846;42.654;23.314;2023-04-24T00:12:07;10.10;;;8.10;;
31336;SDS011;22846;42.654;23.314;2023-04-24T00:14:32;9.02;;;7.68;;
31336;SDS011;22846;42.654;23.314;2023-04-24T00:16:59;10.75;;;8.40;;
31336;SDS011;22846;42.654;23.314;2023-04-24T00:19:25;8.10;;;7.05;;
31336;SDS011;22846;42.654;23.314;2023-04-24T00:21:50;8.05;;;6.90;;
31336;SDS011;22846;42.654;23.314;2023-04-24T00:24:16;8.32;;;7.20;;
31336;SDS011;22846;42.654;23.314;2023-04-24T00:26:42;8.63;;;6.82;;
31336;SDS011;22846;42.654;23.314;2023-04-24T00:29:07;8.15;;;6.97;;
31336;SDS011;22846;42.654;23.314;2023-04-24T00:31:33;8.55;;;6.43;;
31336;SDS011;22846;42.654;23.314;2023-04-24T00:34:02;7.25;;;6.45;;
31336;SDS011;22846;42.654;23.314;2023-04-24T00:36:28;7.95;;;6.60;;
31336;SDS011;22846;42.654;23.314;2023-04-24T00:38:55;7.57;;;6.68;;
31336;SDS011;22846;42.654;23.314;2023-04-24T00:41:21;8.65;;;6.85;;
31336;SDS011;22846;42.654;23.314;2023-04-24T00:43:47;8.38;;;7.00;;
31336;SDS011;22846;42.654;23.314;2023-04-24T00:46:13;7.82;;;6.03;;
31336;SDS011;22846;42.654;23.314;2023-04-24T00:48:39;7.40;;;6.13;;
31336;SDS011;22846;42.654;23.314;2023-04-24T00:51:04;7.65;;;6.10;;
31336;SDS011;22846;42.654;23.314;2023-04-24T00:53:30;7.60;;;6.30;;
31336;SDS011;22846;42.654;23.314;2023-04-24T00:55:55;6.90;;;6.00;;
31336;SDS011;22846;42.654;23.314;2023-04-24T00:58:21;7.18;;;5.78;;
31336;SDS011;22846;42.654;23.314;2023-04-24T01:00:48;6.88;;;5.95;;
31336;SDS011;22846;42.654;23.314;2023-04-24T01:03:15;5.82;;;5.22;;
31336;SDS011;22846;42.654;23.314;2023-04-24T01:05:41;7.38;;;6.03;;
31336;SDS011;22846;42.654;23.314;2023-04-24T01:08:06;7.53;;;6.13;;
31336;SDS011;22846;42.654;23.314;2023-04-24T01:10:32;7.75;;;6.38;;
31336;SDS011;22846;42.654;23.314;2023-04-24T01:12:59;6.85;;;5.68;;
31336;SDS011;22846;42.654;23.314;2023-04-24T01:15:25;7.50;;;5.75;;
31336;SDS011;22846;42.654;23.314;2023-04-24T01:17:51;6.18;;;5.30;;
31336;SDS011;22846;42.654;23.314;2023-04-24T01:20:16;5.90;;;4.80;;
31336;SDS011;22846;42.654;23.314;2023-04-24T01:22:42;6.78;;;5.03;;
31336;SDS011;22846;42.654;23.314;2023-04-24T01:25:08;6.70;;;4.85;;
31336;SDS011;22846;42.654;23.314;2023-04-24T01:27:33;5.22;;;4.65;;
31336;SDS011;22846;42.654;23.314;2023-04-24T01:29:59;6.15;;;5.20;;
31336;SDS011;22846;42.654;23.314;2023-04-24T01:32:24;5.88;;;5.28;;
31336;SDS011;22846;42.654;23.314;2023-04-24T01:34:50;6.95;;;5.85;;
31336;SDS011;22846;42.654;23.314;2023-04-24T01:37:16;5.85;;;4.93;;
31336;SDS011;22846;42.654;23.314;2023-04-24T01:39:42;6.15;;;4.85;;
31336;SDS011;22846;42.654;23.314;2023-04-24T01:42:08;5.43;;;4.60;;
31336;SDS011;22846;42.654;23.314;2023-04-24T01:44:34;5.68;;;4.72;;
31336;SDS011;22846;42.654;23.314;2023-04-24T01:47:00;4.80;;;4.15;;
31336;SDS011;22846;42.654;23.314;2023-04-24T01:49:26;4.70;;;4.20;;
31336;SDS011;22846;42.654;23.314;2023-04-24T01:51:51;4.88;;;4.32;;
31336;SDS011;22846;42.654;23.314;2023-04-24T01:54:17;5.82;;;4.45;;
31336;SDS011;22846;42.654;23.314;2023-04-24T01:56:43;5.25;;;4.35;;
31336;SDS011;22846;42.654;23.314;2023-04-24T01:59:11;5.47;;;4.40;;
31336;SDS011;22846;42.654;23.314;2023-04-24T02:01:37;6.45;;;5.43;;
31336;SDS011;22846;42.654;23.314;2023-04-24T02:04:07;6.10;;;5.10;;
31336;SDS011;22846;42.654;23.314;2023-04-24T02:06:33;5.65;;;4.40;;
31336;SDS011;22846;42.654;23.314;2023-04-24T02:08:59;5.47;;;4.40;;
31336;SDS011;22846;42.654;23.314;2023-04-24T02:11:25;5.10;;;4.18;;
31336;SDS011;22846;42.654;23.314;2023-04-24T02:13:51;4.97;;;4.10;;
31336;SDS011;22846;42.654;23.314;2023-04-24T02:16:17;4.75;;;4.05;;
31336;SDS011;22846;42.654;23.314;2023-04-24T02:18:42;3.92;;;3.53;;
31336;SDS011;22846;42.654;23.314;2023-04-24T02:21:08;5.18;;;4.10;;
31336;SDS011;22846;42.654;23.314;2023-04-24T02:23:34;4.03;;;3.63;;
31336;SDS011;22846;42.654;23.314;2023-04-24T02:26:00;4.40;;;4.00;;
31336;SDS011;22846;42.654;23.314;2023-04-24T02:28:25;5.00;;;4.32;;
31336;SDS011;22846;42.654;23.314;2023-04-24T02:30:51;4.72;;;4.22;;
31336;SDS011;22846;42.654;23.314;2023-04-24T02:33:16;5.07;;;4.30;;
31336;SDS011;22846;42.654;23.314;2023-04-24T02:35:41;4.03;;;3.60;;
31336;SDS011;22846;42.654;23.314;2023-04-24T02:38:07;4.45;;;3.92;;
31336;SDS011;22846;42.654;23.314;2023-04-24T02:40:32;3.97;;;3.50;;
31336;SDS011;22846;42.654;23.314;2023-04-24T02:42:57;4.10;;;3.67;;
31336;SDS011;22846;42.654;23.314;2023-04-24T02:45:23;3.97;;;3.58;;
31336;SDS011;22846;42.654;23.314;2023-04-24T02:47:48;4.45;;;3.67;;
31336;SDS011;22846;42.654;23.314;2023-04-24T02:50:13;4.22;;;3.40;;
31336;SDS011;22846;42.654;23.314;2023-04-24T02:52:39;3.60;;;3.30;;
31336;SDS011;22846;42.654;23.314;2023-04-24T02:55:05;3.85;;;3.22;;
31336;SDS011;22846;42.654;23.314;2023-04-24T02:57:30;4.95;;;3.80;;
31336;SDS011;22846;42.654;23.314;2023-04-24T02:59:56;4.28;;;3.80;;
31336;SDS011;22846;42.654;23.314;2023-04-24T03:02:21;5.05;;;4.20;;
31336;SDS011;22846;42.654;23.314;2023-04-24T03:04:47;3.95;;;3.25;;
31336;SDS011;22846;42.654;23.314;2023-04-24T03:07:14;4.03;;;3.63;;
31336;SDS011;22846;42.654;23.314;2023-04-24T03:09:40;4.05;;;3.40;;
31336;SDS011;22846;42.654;23.314;2023-04-24T03:12:06;3.80;;;3.28;;
31336;SDS011;22846;42.654;23.314;2023-04-24T03:14:31;3.30;;;3.00;;
31336;SDS011;22846;42.654;23.314;2023-04-24T03:16:57;3.70;;;3.10;;
31336;SDS011;22846;42.654;23.314;2023-04-24T03:19:22;3.30;;;3.00;;
31336;SDS011;22846;42.654;23.314;2023-04-24T03:21:48;4.05;;;3.58;;
31336;SDS011;22846;42.654;23.314;2023-04-24T03:24:14;4.28;;;3.60;;
31336;SDS011;22846;42.654;23.314;2023-04-24T03:26:39;4.63;;;4.03;;
31336;SDS011;22846;42.654;23.314;2023-04-24T03:29:05;4.20;;;3.63;;
31336;SDS011;22846;42.654;23.314;2023-04-24T03:31:30;4.10;;;3.28;;
31336;SDS011;22846;42.654;23.314;2023-04-24T03:33:56;3.30;;;3.00;;
31336;SDS011;22846;42.654;23.314;2023-04-24T03:36:21;3.67;;;3.30;;
31336;SDS011;22846;42.654;23.314;2023-04-24T03:38:46;3.45;;;2.90;;
31336;SDS011;22846;42.654;23.314;2023-04-24T03:41:12;3.85;;;3.15;;
31336;SDS011;22846;42.654;23.314;2023-04-24T03:43:37;3.60;;;3.00;;
31336;SDS011;22846;42.654;23.314;2023-04-24T03:46:03;3.88;;;2.90;;
31336;SDS011;22846;42.654;23.314;2023-04-24T03:48:28;4.60;;;3.28;;
31336;SDS011;22846;42.654;23.314;2023-04-24T03:50:54;3.42;;;3.05;;
31336;SDS011;22846;42.654;23.314;2023-04-24T03:53:19;11.88;;;4.45;;
31336;SDS011;22846;42.654;23.314;2023-04-24T03:55:45;17.50;;;5.65;;
31336;SDS011;22846;42.654;23.314;2023-04-24T03:58:11;6.18;;;4.07;;
31336;SDS011;22846;42.654;23.314;2023-04-24T04:00:36;5.13;;;3.30;;
31336;SDS011;22846;42.654;23.314;2023-04-24T04:03:02;5.43;;;3.85;;
31336;SDS011;22846;42.654;23.314;2023-04-24T04:05:28;6.47;;;3.78;;
31336;SDS011;22846;42.654;23.314;2023-04-24T04:07:54;6.60;;;3.17;;
31336;SDS011;22846;42.654;23.314;2023-04-24T04:10:20;5.78;;;3.42;;
31336;SDS011;22846;42.654;23.314;2023-04-24T04:12:46;4.07;;;3.30;;
31336;SDS011;22846;42.654;23.314;2023-04-24T04:15:11;5.00;;;3.50;;
31336;SDS011;22846;42.654;23.314;2023-04-24T04:17:37;5.75;;;3.55;;
31336;SDS011;22846;42.654;23.314;2023-04-24T04:20:03;6.40;;;3.72;;
31336;SDS011;22846;42.654;23.314;2023-04-24T04:22:33;5.45;;;3.55;;
31336;SDS011;22846;42.654;23.314;2023-04-24T04:24:59;4.55;;;3.72;;
31336;SDS011;22846;42.654;23.314;2023-04-24T04:27:24;5.47;;;3.50;;
31336;SDS011;22846;42.654;23.314;2023-04-24T04:29:50;5.65;;;3.40;;
31336;SDS011;22846;42.654;23.314;2023-04-24T04:32:16;5.63;;;3.55;;
31336;SDS011;22846;42.654;23.314;2023-04-24T04:34:41;6.30;;;3.85;;
31336;SDS011;22846;42.654;23.314;2023-04-24T04:37:07;12.07;;;3.97;;
31336;SDS011;22846;42.654;23.314;2023-04-24T04:39:33;38.03;;;6.60;;
31336;SDS011;22846;42.654;23.314;2023-04-24T04:41:59;50.40;;;8.95;;
31336;SDS011;22846;42.654;23.314;2023-04-24T04:44:25;33.47;;;6.72;;
31336;SDS011;22846;42.654;23.314;2023-04-24T04:46:52;21.63;;;5.30;;
31336;SDS011;22846;42.654;23.314;2023-04-24T04:49:18;15.60;;;5.05;;
31336;SDS011;22846;42.654;23.314;2023-04-24T04:51:46;19.33;;;4.57;;
31336;SDS011;22846;42.654;23.314;2023-04-24T04:54:12;18.75;;;4.60;;
31336;SDS011;22846;42.654;23.314;2023-04-24T04:56:37;15.10;;;5.00;;
31336;SDS011;22846;42.654;23.314;2023-04-24T04:59:02;15.45;;;5.05;;
31336;SDS011;22846;42.654;23.314;2023-04-24T05:01:28;12.65;;;5.13;;
31336;SDS011;22846;42.654;23.314;2023-04-24T05:03:53;12.57;;;4.72;;
31336;SDS011;22846;42.654;23.314;2023-04-24T05:06:18;12.10;;;4.20;;
31336;SDS011;22846;42.654;23.314;2023-04-24T05:08:44;14.15;;;4.65;;
31336;SDS011;22846;42.654;23.314;2023-04-24T05:11:09;14.15;;;4.60;;
31336;SDS011;22846;42.654;23.314;2023-04-24T05:13:35;12.70;;;4.60;;
31336;SDS011;22846;42.654;23.314;2023-04-24T05:16:00;7.70;;;4.10;;
31336;SDS011;22846;42.654;23.314;2023-04-24T05:18:26;13.27;;;4.50;;
31336;SDS011;22846;42.654;23.314;2023-04-24T05:20:51;8.05;;;4.18;;
31336;SDS011;22846;42.654;23.314;2023-04-24T05:23:16;7.88;;;4.18;;
31336;SDS011;22846;42.654;23.314;2023-04-24T05:25:42;8.93;;;3.90;;
31336;SDS011;22846;42.654;23.314;2023-04-24T05:28:07;10.75;;;4.15;;
31336;SDS011;22846;42.654;23.314;2023-04-24T05:30:33;7.90;;;3.67;;
31336;SDS011;22846;42.654;23.314;2023-04-24T05:32:58;6.88;;;4.10;;
31336;SDS011;22846;42.654;23.314;2023-04-24T05:35:24;19.95;;;4.53;;
31336;SDS011;22846;42.654;23.314;2023-04-24T05:37:49;10.23;;;4.85;;
31336;SDS011;22846;42.654;23.314;2023-04-24T05:40:15;8.93;;;4.50;;
31336;SDS011;22846;42.654;23.314;2023-04-24T05:42:40;14.15;;;9.75;;
31336;SDS011;22846;42.654;23.314;2023-04-24T05:45:06;49.17;;;30.48;;
31336;SDS011;22846;42.654;23.314;2023-04-24T05:47:32;28.05;;;12.02;;
31336;SDS011;22846;42.654;23.314;2023-04-24T05:49:57;25.45;;;9.90;;
31336;SDS011;22846;42.654;23.314;2023-04-24T05:52:23;16.10;;;7.93;;
31336;SDS011;22846;42.654;23.314;2023-04-24T05:54:48;15.85;;;7.32;;
31336;SDS011;22846;42.654;23.314;2023-04-24T05:57:13;11.60;;;6.95;;
31336;SDS011;22846;42.654;23.314;2023-04-24T05:59:40;10.27;;;6.43;;
31336;SDS011;22846;42.654;23.314;2023-04-24T06:02:05;13.70;;;6.80;;
31336;SDS011;22846;42.654;23.314;2023-04-24T06:04:31;13.18;;;6.43;;
31336;SDS011;22846;42.654;23.314;2023-04-24T06:06:57;11.52;;;6.45;;
31336;SDS011;22846;42.654;23.314;2023-04-24T06:09:22;12.50;;;6.25;;
31336;SDS011;22846;42.654;23.314;2023-04-24T06:11:48;11.65;;;5.63;;
31336;SDS011;22846;42.654;23.314;2023-04-24T06:14:14;10.13;;;5.45;;
31336;SDS011;22846;42.654;23.314;2023-04-24T06:16:41;12.30;;;6.15;;
31336;SDS011;22846;42.654;23.314;2023-04-24T06:19:07;12.32;;;6.10;;
31336;SDS011;22846;42.654;23.314;2023-04-24T06:21:32;10.20;;;5.93;;
31336;SDS011;22846;42.654;23.314;2023-04-24T06:23:58;15.73;;;6.25;;
31336;SDS011;22846;42.654;23.314;2023-04-24T06:26:23;10.10;;;5.78;;
31336;SDS011;22846;42.654;23.314;2023-04-24T06:28:50;15.80;;;6.35;;
31336;SDS011;22846;42.654;23.314;2023-04-24T06:31:16;21.67;;;6.15;;
31336;SDS011;22846;42.654;23.314;2023-04-24T06:33:42;19.38;;;6.68;;
31336;SDS011;22846;42.654;23.314;2023-04-24T06:36:07;20.63;;;7.28;;
31336;SDS011;22846;42.654;23.314;2023-04-24T06:38:33;17.67;;;6.00;;
31336;SDS011;22846;42.654;23.314;2023-04-24T06:40:59;40.38;;;18.15;;
31336;SDS011;22846;42.654;23.314;2023-04-24T06:43:25;40.70;;;18.90;;
31336;SDS011;22846;42.654;23.314;2023-04-24T06:45:50;28.60;;;10.02;;
31336;SDS011;22846;42.654;23.314;2023-04-24T06:48:16;32.50;;;13.00;;
31336;SDS011;22846;42.654;23.314;2023-04-24T06:50:41;32.25;;;12.63;;
31336;SDS011;22846;42.654;23.314;2023-04-24T06:53:07;26.52;;;12.00;;
31336;SDS011;22846;42.654;23.314;2023-04-24T06:55:33;25.25;;;11.80;;
31336;SDS011;22846;42.654;23.314;2023-04-24T06:57:58;22.20;;;10.88;;
31336;SDS011;22846;42.654;23.314;2023-04-24T07:00:24;20.98;;;11.15;;
31336;SDS011;22846;42.654;23.314;2023-04-24T07:02:49;25.63;;;11.57;;
31336;SDS011;22846;42.654;23.314;2023-04-24T07:05:15;23.50;;;10.80;;
31336;SDS011;22846;42.654;23.314;2023-04-24T07:07:40;24.58;;;10.93;;
31336;SDS011;22846;42.654;23.314;2023-04-24T07:10:07;18.50;;;10.18;;
31336;SDS011;22846;42.654;23.314;2023-04-24T07:12:33;21.58;;;9.70;;
31336;SDS011;22846;42.654;23.314;2023-04-24T07:14:59;19.08;;;9.88;;
31336;SDS011;22846;42.654;23.314;2023-04-24T07:17:25;22.63;;;9.15;;
31336;SDS011;22846;42.654;23.314;2023-04-24T07:19:50;19.75;;;9.25;;
31336;SDS011;22846;42.654;23.314;2023-04-24T07:22:16;19.33;;;8.73;;
31336;SDS011;22846;42.654;23.314;2023-04-24T07:24:45;20.60;;;9.32;;
31336;SDS011;22846;42.654;23.314;2023-04-24T07:27:10;16.60;;;8.18;;
31336;SDS011;22846;42.654;23.314;2023-04-24T07:29:36;18.42;;;8.40;;
31336;SDS011;22846;42.654;23.314;2023-04-24T07:32:02;16.83;;;8.10;;
31336;SDS011;22846;42.654;23.314;2023-04-24T07:34:27;15.65;;;7.90;;
31336;SDS011;22846;42.654;23.314;2023-04-24T07:36:52;17.05;;;7.60;;
31336;SDS011;22846;42.654;23.314;2023-04-24T07:39:18;13.45;;;7.30;;
31336;SDS011;22846;42.654;23.314;2023-04-24T07:41:43;15.98;;;7.13;;
31336;SDS011;22846;42.654;23.314;2023-04-24T07:44:09;16.05;;;7.15;;
31336;SDS011;22846;42.654;23.314;2023-04-24T07:46:35;18.73;;;7.85;;
31336;SDS011;22846;42.654;23.314;2023-04-24T07:49:00;11.73;;;7.68;;
31336;SDS011;22846;42.654;23.314;2023-04-24T07:51:26;12.60;;;7.10;;
31336;SDS011;22846;42.654;23.314;2023-04-24T07:53:55;14.68;;;7.28;;
31336;SDS011;22846;42.654;23.314;2023-04-24T07:56:21;13.82;;;7.05;;
31336;SDS011;22846;42.654;23.314;2023-04-24T07:58:46;14.55;;;6.75;;
31336;SDS011;22846;42.654;23.314;2023-04-24T08:01:11;15.38;;;7.35;;
31336;SDS011;22846;42.654;23.314;2023-04-24T08:03:37;12.05;;;6.70;;
31336;SDS011;22846;42.654;23.314;2023-04-24T08:06:02;12.60;;;6.45;;
31336;SDS011;22846;42.654;23.314;2023-04-24T08:08:28;13.45;;;6.53;;
31336;SDS011;22846;42.654;23.314;2023-04-24T08:10:53;11.90;;;6.88;;
31336;SDS011;22846;42.654;23.314;2023-04-24T08:13:19;10.68;;;6.45;;
31336;SDS011;22846;42.654;23.314;2023-04-24T08:15:45;13.20;;;6.32;;
31336;SDS011;22846;42.654;23.314;2023-04-24T08:18:11;12.13;;;6.35;;
31336;SDS011;22846;42.654;23.314;2023-04-24T08:20:37;14.32;;;7.07;;
31336;SDS011;22846;42.654;23.314;2023-04-24T08:23:02;9.68;;;5.82;;
31336;SDS011;22846;42.654;23.314;2023-04-24T08:25:28;8.38;;;5.60;;
31336;SDS011;22846;42.654;23.314;2023-04-24T08:27:53;10.40;;;5.55;;
31336;SDS011;22846;42.654;23.314;2023-04-24T08:30:19;8.88;;;6.00;;
31336;SDS011;22846;42.654;23.314;2023-04-24T08:32:45;9.63;;;6.00;;
31336;SDS011;22846;42.654;23.314;2023-04-24T08:35:11;8.38;;;5.57;;
31336;SDS011;22846;42.654;23.314;2023-04-24T08:37:37;9.48;;;5.43;;
31336;SDS011;22846;42.654;23.314;2023-04-24T08:40:06;11.20;;;5.85;;
31336;SDS011;22846;42.654;23.314;2023-04-24T08:42:42;10.85;;;5.40;;
31336;SDS011;22846;42.654;23.314;2023-04-24T08:45:09;12.38;;;5.60;;
31336;SDS011;22846;42.654;23.314;2023-04-24T08:47:38;9.48;;;5.60;;
31336;SDS011;22846;42.654;23.314;2023-04-24T08:50:06;10.32;;;5.50;;
31336;SDS011;22846;42.654;23.314;2023-04-24T08:52:33;10.75;;;5.55;;
31336;SDS011;22846;42.654;23.314;2023-04-24T08:55:02;10.98;;;5.20;;
31336;SDS011;22846;42.654;23.314;2023-04-24T08:57:28;8.00;;;4.97;;
31336;SDS011;22846;42.654;23.314;2023-04-24T08:59:56;9.13;;;5.38;;
31336;SDS011;22846;42.654;23.314;2023-04-24T09:02:22;6.95;;;4.45;;
31336;SDS011;22846;42.654;23.314;2023-04-24T09:04:48;7.30;;;4.88;;
31336;SDS011;22846;42.654;23.314;2023-04-24T09:07:16;9.13;;;4.53;;
31336;SDS011;22846;42.654;23.314;2023-04-24T09:09:43;9.57;;;4.55;;
31336;SDS011;22846;42.654;23.314;2023-04-24T09:12:09;7.45;;;4.68;;
31336;SDS011;22846;42.654;23.314;2023-04-24T09:14:35;8.15;;;4.75;;
31336;SDS011;22846;42.654;23.314;2023-04-24T09:17:04;9.55;;;4.63;;
31336;SDS011;22846;42.654;23.314;2023-04-24T09:19:31;7.68;;;4.78;;
31336;SDS011;22846;42.654;23.314;2023-04-24T09:21:56;8.43;;;4.43;;
31336;SDS011;22846;42.654;23.314;2023-04-24T09:24:22;8.75;;;5.03;;
31336;SDS011;22846;42.654;23.314;2023-04-24T09:26:48;6.45;;;4.40;;
31336;SDS011;22846;42.654;23.314;2023-04-24T09:29:15;6.78;;;4.50;;
31336;SDS011;22846;42.654;23.314;2023-04-24T09:31:41;7.35;;;4.88;;
31336;SDS011;22846;42.654;23.314;2023-04-24T09:34:07;7.25;;;4.43;;
31336;SDS011;22846;42.654;23.314;2023-04-24T09:36:36;8.57;;;4.90;;
31336;SDS011;22846;42.654;23.314;2023-04-24T09:39:04;5.85;;;4.13;;
31336;SDS011;22846;42.654;23.314;2023-04-24T09:41:31;6.60;;;4.68;;
31336;SDS011;22846;42.654;23.314;2023-04-24T09:43:58;6.93;;;4.18;;
31336;SDS011;22846;42.654;23.314;2023-04-24T09:46:36;8.40;;;4.25;;
31336;SDS011;22846;42.654;23.314;2023-04-24T09:49:34;6.63;;;4.80;;
31336;SDS011;22846;42.654;23.314;2023-04-24T09:54:33;5.93;;;4.45;;
31336;SDS011;22846;42.654;23.314;2023-04-24T09:57:00;5.63;;;4.40;;
31336;SDS011;22846;42.654;23.314;2023-04-24T09:59:25;5.40;;;4.07;;
31336;SDS011;22846;42.654;23.314;2023-04-24T10:01:51;4.90;;;3.83;;
31336;SDS011;22846;42.654;23.314;2023-04-24T10:04:21;6.28;;;4.22;;
31336;SDS011;22846;42.654;23.314;2023-04-24T10:06:49;5.20;;;4.10;;
31336;SDS011;22846;42.654;23.314;2023-04-24T10:09:16;4.47;;;3.63;;
31336;SDS011;22846;42.654;23.314;2023-04-24T10:11:43;4.95;;;3.78;;
31336;SDS011;22846;42.654;23.314;2023-04-24T10:14:13;5.75;;;3.92;;
31336;SDS011;22846;42.654;23.314;2023-04-24T10:16:40;4.90;;;3.45;;
31336;SDS011;22846;42.654;23.314;2023-04-24T10:19:06;6.85;;;3.67;;
31336;SDS011;22846;42.654;23.314;2023-04-24T10:21:32;5.80;;;3.60;;
31336;SDS011;22846;42.654;23.314;2023-04-24T10:23:57;6.32;;;3.95;;
31336;SDS011;22846;42.654;23.314;2023-04-24T10:26:25;5.60;;;4.07;;
31336;SDS011;22846;42.654;23.314;2023-04-24T10:28:51;6.40;;;3.85;;
31336;SDS011;22846;42.654;23.314;2023-04-24T10:31:19;5.03;;;3.58;;
31336;SDS011;22846;42.654;23.314;2023-04-24T10:33:45;6.57;;;3.65;;
31336;SDS011;22846;42.654;23.314;2023-04-24T10:36:12;5.00;;;3.80;;
31336;SDS011;22846;42.654;23.314;2023-04-24T10:38:40;5.40;;;3.40;;
31336;SDS011;22846;42.654;23.314;2023-04-24T10:41:08;3.80;;;3.25;;
31336;SDS011;22846;42.654;23.314;2023-04-24T10:43:39;5.53;;;4.05;;
31336;SDS011;22846;42.654;23.314;2023-04-24T10:46:05;5.22;;;3.55;;
31336;SDS011;22846;42.654;23.314;2023-04-24T10:48:31;6.03;;;3.60;;
31336;SDS011;22846;42.654;23.314;2023-04-24T10:50:57;5.10;;;3.33;;
31336;SDS011;22846;42.654;23.314;2023-04-24T10:53:24;5.40;;;3.80;;
31336;SDS011;22846;42.654;23.314;2023-04-24T10:56:02;5.18;;;3.60;;
31336;SDS011;22846;42.654;23.314;2023-04-24T10:58:39;4.45;;;3.50;;
31336;SDS011;22846;42.654;23.314;2023-04-24T11:01:08;5.03;;;3.28;;
31336;SDS011;22846;42.654;23.314;2023-04-24T11:03:34;5.45;;;3.67;;
31336;SDS011;22846;42.654;23.314;2023-04-24T11:06:07;5.03;;;3.38;;
31336;SDS011;22846;42.654;23.314;2023-04-24T11:11:13;4.15;;;3.20;;
31336;SDS011;22846;42.654;23.314;2023-04-24T11:19:05;4.35;;;3.50;;
31336;SDS011;22846;42.654;23.314;2023-04-24T11:27:21;4.68;;;3.25;;
31336;SDS011;22846;42.654;23.314;2023-04-24T11:35:15;5.18;;;3.13;;
31336;SDS011;22846;42.654;23.314;2023-04-24T11:37:53;3.22;;;2.60;;
31336;SDS011;22846;42.654;23.314;2023-04-24T11:40:21;3.90;;;3.33;;
31336;SDS011;22846;42.654;23.314;2023-04-24T11:42:51;3.55;;;2.85;;
31336;SDS011;22846;42.654;23.314;2023-04-24T11:45:18;4.15;;;2.97;;
31336;SDS011;22846;42.654;23.314;2023-04-24T11:47:46;4.07;;;3.03;;
31336;SDS011;22846;42.654;23.314;2023-04-24T11:50:13;3.95;;;3.00;;
31336;SDS011;22846;42.654;23.314;2023-04-24T11:52:40;3.80;;;3.25;;
31336;SDS011;22846;42.654;23.314;2023-04-24T11:55:07;3.85;;;3.05;;
31336;SDS011;22846;42.654;23.314;2023-04-24T11:57:48;3.50;;;2.97;;
31336;SDS011;22846;42.654;23.314;2023-04-24T12:00:19;4.78;;;3.20;;
31336;SDS011;22846;42.654;23.314;2023-04-24T12:03:02;4.15;;;2.95;;
31336;SDS011;22846;42.654;23.314;2023-04-24T12:05:30;3.72;;;2.97;;
31336;SDS011;22846;42.654;23.314;2023-04-24T12:07:56;3.33;;;2.85;;
31336;SDS011;22846;42.654;23.314;2023-04-24T12:10:22;6.88;;;3.10;;
31336;SDS011;22846;42.654;23.314;2023-04-24T12:12:49;3.72;;;2.67;;
31336;SDS011;22846;42.654;23.314;2023-04-24T12:15:15;3.80;;;3.08;;
31336;SDS011;22846;42.654;23.314;2023-04-24T12:17:41;3.25;;;2.63;;
31336;SDS011;22846;42.654;23.314;2023-04-24T12:20:08;5.28;;;2.90;;
31336;SDS011;22846;42.654;23.314;2023-04-24T12:25:09;2.70;;;2.38;;
31336;SDS011;22846;42.654;23.314;2023-04-24T12:27:35;3.17;;;2.85;;
31336;SDS011;22846;42.654;23.314;2023-04-24T12:30:02;3.35;;;2.60;;
31336;SDS011;22846;42.654;23.314;2023-04-24T12:32:31;3.22;;;2.45;;
31336;SDS011;22846;42.654;23.314;2023-04-24T12:34:57;4.25;;;2.80;;
31336;SDS011;22846;42.654;23.314;2023-04-24T12:37:23;2.80;;;2.35;;
31336;SDS011;22846;42.654;23.314;2023-04-24T12:42:25;3.00;;;2.63;;
31336;SDS011;22846;42.654;23.314;2023-04-24T12:44:55;3.03;;;2.47;;
31336;SDS011;22846;42.654;23.314;2023-04-24T12:47:22;3.03;;;2.45;;
31336;SDS011;22846;42.654;23.314;2023-04-24T12:49:47;3.67;;;2.63;;
31336;SDS011;22846;42.654;23.314;2023-04-24T12:52:15;3.30;;;2.70;;
31336;SDS011;22846;42.654;23.314;2023-04-24T12:54:42;3.47;;;2.90;;
31336;SDS011;22846;42.654;23.314;2023-04-24T12:57:07;3.35;;;2.50;;
31336;SDS011;22846;42.654;23.314;2023-04-24T12:59:33;3.03;;;2.33;;
31336;SDS011;22846;42.654;23.314;2023-04-24T13:01:58;4.15;;;2.70;;
31336;SDS011;22846;42.654;23.314;2023-04-24T13:04:23;3.10;;;2.58;;
31336;SDS011;22846;42.654;23.314;2023-04-24T13:06:49;2.60;;;2.40;;
31336;SDS011;22846;42.654;23.314;2023-04-24T13:09:15;3.00;;;2.20;;
31336;SDS011;22846;42.654;23.314;2023-04-24T13:11:40;2.60;;;2.40;;
31336;SDS011;22846;42.654;23.314;2023-04-24T13:14:05;2.83;;;2.40;;
31336;SDS011;22846;42.654;23.314;2023-04-24T13:16:31;2.88;;;2.15;;
31336;SDS011;22846;42.654;23.314;2023-04-24T13:18:56;3.50;;;2.63;;
31336;SDS011;22846;42.654;23.314;2023-04-24T13:21:22;2.97;;;2.40;;
31336;SDS011;22846;42.654;23.314;2023-04-24T13:23:47;3.33;;;2.40;;
31336;SDS011;22846;42.654;23.314;2023-04-24T13:26:12;2.67;;;2.40;;
31336;SDS011;22846;42.654;23.314;2023-04-24T13:28:38;2.40;;;2.17;;
31336;SDS011;22846;42.654;23.314;2023-04-24T13:31:03;2.67;;;2.20;;
31336;SDS011;22846;42.654;23.314;2023-04-24T13:33:29;2.15;;;1.95;;
31336;SDS011;22846;42.654;23.314;2023-04-24T13:35:54;2.78;;;2.38;;
31336;SDS011;22846;42.654;23.314;2023-04-24T13:38:20;2.65;;;2.33;;
31336;SDS011;22846;42.654;23.314;2023-04-24T13:40:47;3.65;;;2.70;;
31336;SDS011;22846;42.654;23.314;2023-04-24T13:43:12;3.05;;;2.40;;
31336;SDS011;22846;42.654;23.314;2023-04-24T13:45:38;3.00;;;2.33;;
31336;SDS011;22846;42.654;23.314;2023-04-24T13:48:03;2.65;;;2.20;;
31336;SDS011;22846;42.654;23.314;2023-04-24T13:50:29;3.13;;;2.13;;
31336;SDS011;22846;42.654;23.314;2023-04-24T13:52:54;3.60;;;2.10;;
31336;SDS011;22846;42.654;23.314;2023-04-24T13:55:21;2.83;;;2.40;;
31336;SDS011;22846;42.654;23.314;2023-04-24T13:57:47;2.08;;;1.88;;
31336;SDS011;22846;42.654;23.314;2023-04-24T14:00:12;2.40;;;2.20;;
31336;SDS011;22846;42.654;23.314;2023-04-24T14:02:38;3.58;;;2.17;;
31336;SDS011;22846;42.654;23.314;2023-04-24T14:05:04;2.95;;;2.10;;
31336;SDS011;22846;42.654;23.314;2023-04-24T14:07:30;2.53;;;2.10;;
31336;SDS011;22846;42.654;23.314;2023-04-24T14:09:56;2.45;;;2.20;;
31336;SDS011;22846;42.654;23.314;2023-04-24T14:12:22;2.55;;;2.25;;
31336;SDS011;22846;42.654;23.314;2023-04-24T14:14:47;2.25;;;2.05;;
31336;SDS011;22846;42.654;23.314;2023-04-24T14:17:13;2.67;;;2.42;;
31336;SDS011;22846;42.654;23.314;2023-04-24T14:19:39;2.35;;;1.90;;
31336;SDS011;22846;42.654;23.314;2023-04-24T14:22:05;2.40;;;2.20;;
31336;SDS011;22846;42.654;23.314;2023-04-24T14:24:30;2.30;;;2.10;;
31336;SDS011;22846;42.654;23.314;2023-04-24T14:26:56;2.20;;;1.90;;
31336;SDS011;22846;42.654;23.314;2023-04-24T14:29:22;2.45;;;2.03;;
31336;SDS011;22846;42.654;23.314;2023-04-24T14:31:47;3.15;;;2.13;;
31336;SDS011;22846;42.654;23.314;2023-04-24T14:34:13;2.50;;;2.10;;
31336;SDS011;22846;42.654;23.314;2023-04-24T14:36:38;2.65;;;2.10;;
31336;SDS011;22846;42.654;23.314;2023-04-24T14:39:04;2.75;;;2.13;;
31336;SDS011;22846;42.654;23.314;2023-04-24T14:41:32;2.65;;;2.00;;
31336;SDS011;22846;42.654;23.314;2023-04-24T14:44:01;2.20;;;2.00;;
31336;SDS011;22846;42.654;23.314;2023-04-24T14:46:27;2.72;;;2.13;;
31336;SDS011;22846;42.654;23.314;2023-04-24T14:48:55;2.33;;;1.77;;
31336;SDS011;22846;42.654;23.314;2023-04-24T14:51:21;2.33;;;2.08;;
31336;SDS011;22846;42.654;23.314;2023-04-24T14:53:46;2.20;;;1.95;;